Time;durP1;ratioP1;P1;durP2;ratioP2;P2;SDS_P1;SDS_P2;PMS_P1;PMS_P2;Temp;Humidity;BMP_temperature;BMP_pressure;BME280_temperature;BME280_humidity;BME280_pressure;Samples;Min_cycle;Max_cycle;Signal;HPM_P1;HPM_P2
2022/08/12 00:45:24;;;;;;;5.60;5.10;;;;;;;13.25;100.00;99348.80;2218276;80;20997;-83
2022/08/12 00:48:25;;;;;;;7.92;5.78;;;;;;;13.22;100.00;99352.63;2218164;80;21032;-83
2022/08/12 00:52:04;;;;;;;6.95;6.35;;;;;;;13.20;100.00;99350.68;2202586;80;21071;-82
2022/08/12 00:54:28;;;;;;;6.10;5.53;;;;;;;13.18;100.00;99348.70;2176003;82;21105;-81
2022/08/12 00:57:29;;;;;;;6.37;5.87;;;;;;;13.16;100.00;99353.30;2179918;82;21038;-81
2022/08/12 01:00:31;;;;;;;6.78;6.17;;;;;;;13.15;100.00;99355.62;2176834;81;21047;-83
2022/08/12 01:11:27;;;;;;;6.45;5.85;;;;;;;13.13;100.00;99353.67;2175146;80;21045;-83
2022/08/12 01:13:12;;;;;;;6.90;6.25;;;;;;;13.09;100.00;99345.84;2156819;82;21104;-84
2022/08/12 01:16:13;;;;;;;8.30;6.75;;;;;;;13.07;100.00;99355.70;2149677;81;21569;-83
2022/08/12 01:19:14;;;;;;;7.53;6.78;;;;;;;13.07;100.00;99351.75;2152055;82;21064;-83
2022/08/12 01:22:15;;;;;;;7.53;6.72;;;;;;;13.10;100.00;99357.98;2158710;81;21543;-84
2022/08/12 01:25:19;;;;;;;8.33;7.40;;;;;;;13.09;100.00;99345.34;2160055;82;21084;-84
2022/08/12 01:28:20;;;;;;;8.60;7.80;;;;;;;13.09;100.00;99343.22;2152121;82;21575;-83
2022/08/12 01:31:21;;;;;;;9.03;7.85;;;;;;;13.10;100.00;99345.66;2139848;82;21035;-84
2022/08/12 01:34:22;;;;;;;10.65;6.53;;;;;;;13.09;100.00;99337.45;2145198;81;21040;-83
2022/08/12 01:37:22;;;;;;;8.75;6.95;;;;;;;13.08;100.00;99341.59;2159834;82;21048;-82
2022/08/12 01:40:24;;;;;;;7.95;7.15;;;;;;;13.03;100.00;99330.78;2159975;82;20970;-84
2022/08/12 01:43:25;;;;;;;7.45;6.20;;;;;;;12.99;100.00;99336.91;2158654;82;21591;-83
2022/08/12 01:46:26;;;;;;;9.73;7.40;;;;;;;12.97;100.00;99338.87;2160538;81;21344;-83
2022/08/12 01:49:27;;;;;;;8.00;7.00;;;;;;;12.95;100.00;99342.19;2160879;82;21532;-84
2022/08/12 01:52:28;;;;;;;9.35;7.53;;;;;;;12.93;100.00;99334.17;2159427;82;21005;-83
2022/08/12 01:55:29;;;;;;;8.85;8.13;;;;;;;12.91;100.00;99332.23;2159551;81;21553;-83
2022/08/12 01:59:44;;;;;;;10.20;7.12;;;;;;;12.91;100.00;99333.55;2154623;82;21030;-82
2022/08/12 02:01:33;;;;;;;7.92;7.15;;;;;;;12.90;100.00;99328.78;2144852;82;21053;-85
2022/08/12 02:11:18;;;;;;;11.18;7.83;;;;;;;12.86;100.00;99326.17;2126640;81;21008;-84
2022/08/12 02:14:18;;;;;;;6.80;6.20;;;;;;;12.86;100.00;99322.73;2141821;82;21579;-86
2022/08/12 02:17:19;;;;;;;7.53;6.70;;;;;;;12.88;100.00;99318.11;2140752;82;21037;-84
2022/08/12 02:20:20;;;;;;;8.55;7.72;;;;;;;12.89;100.00;99324.50;2153108;82;21064;-85
2022/08/12 02:23:22;;;;;;;10.03;7.20;;;;;;;12.93;100.00;99317.90;2147045;82;21620;-85
2022/08/12 02:26:22;;;;;;;8.23;7.42;;;;;;;12.95;100.00;99308.02;2158789;82;21048;-85
2022/08/12 02:29:23;;;;;;;6.72;5.78;;;;;;;12.97;100.00;99313.09;2159035;82;21488;-86
2022/08/12 02:32:24;;;;;;;7.80;7.10;;;;;;;12.95;100.00;99317.72;2151027;82;21040;-85
2022/08/12 02:35:25;;;;;;;8.15;7.33;;;;;;;12.91;100.00;99321.71;2152558;81;21521;-85
2022/08/12 02:38:26;;;;;;;10.65;7.78;;;;;;;12.88;100.00;99320.23;2139918;82;21323;-85
2022/08/12 02:41:27;;;;;;;8.58;6.72;;;;;;;12.86;100.00;99320.92;2120838;84;21033;-85
2022/08/12 02:44:28;;;;;;;8.15;6.60;;;;;;;12.84;100.00;99320.79;2143391;81;20938;-85
2022/08/12 02:47:30;;;;;;;6.17;5.65;;;;;;;12.79;100.00;99322.63;2159037;82;21109;-85
2022/08/12 02:53:33;;;;;;;7.90;6.53;;;;;;;12.75;100.00;99321.36;2050836;87;21058;-84
2022/08/12 02:56:36;;;;;;;8.10;5.67;;;;;;;12.74;100.00;99322.36;2049605;87;21088;-83
2022/08/12 02:59:36;;;;;;;7.12;6.30;;;;;;;12.74;100.00;99313.98;2050634;87;21092;-83
2022/08/12 03:02:37;;;;;;;7.28;6.58;;;;;;;12.75;100.00;99313.48;2054010;87;21020;-83
2022/08/12 03:05:38;;;;;;;9.30;6.33;;;;;;;12.76;100.00;99308.05;2049599;87;21675;-83
2022/08/12 03:08:42;;;;;;;7.03;6.33;;;;;;;12.77;100.00;99307.05;2051099;87;21484;-83
2022/08/12 03:11:44;;;;;;;6.53;5.95;;;;;;;12.80;100.00;99298.82;2047268;87;21694;-83
2022/08/12 03:14:45;;;;;;;10.72;6.95;;;;;;;12.83;100.00;99297.64;2046962;87;21096;-83
2022/08/12 03:17:46;;;;;;;8.50;6.75;;;;;;;12.85;100.00;99293.52;2048297;86;21146;-83
2022/08/12 03:20:47;;;;;;;9.28;7.12;;;;;;;12.85;100.00;99296.14;2054202;87;21020;-83
2022/08/12 03:23:48;;;;;;;7.65;7.05;;;;;;;12.86;100.00;99293.33;2051646;87;21089;-84
2022/08/12 03:26:51;;;;;;;8.83;6.17;;;;;;;12.85;100.00;99299.58;2050151;87;21466;-83
2022/08/12 03:29:54;;;;;;;7.35;6.60;;;;;;;12.82;100.00;99314.41;1955660;91;21112;-85
2022/08/12 03:32:54;;;;;;;9.00;6.50;;;;;;;12.77;100.00;99324.13;1953672;90;21125;-84
2022/08/12 03:35:55;;;;;;;7.15;5.90;;;;;;;12.75;100.00;99323.49;1952312;90;21063;-84
2022/08/12 03:42:15;;;;;;;8.03;6.05;;;;;;;12.70;100.00;99314.00;1956024;91;21629;-85
2022/08/12 04:01:58;;;;;;;7.28;6.45;;;;;;;14.15;100.00;99322.16;1991001;88;21080;-86
2022/08/12 04:04:56;;;;;;;6.40;5.80;;;;;;;14.63;100.00;99323.25;2013472;88;21052;-84
2022/08/12 04:07:58;;;;;;;7.58;6.87;;;;;;;14.94;100.00;99334.72;2012398;88;21077;-85
2022/08/12 04:14:24;;;;;;;8.28;6.83;;;;;;;15.87;100.00;99332.58;2007885;89;21628;-84
2022/08/12 04:17:26;;;;;;;7.78;6.15;;;;;;;16.26;100.00;99329.71;2007804;89;21107;-84
2022/08/12 04:20:26;;;;;;;6.85;6.25;;;;;;;16.60;100.00;99333.51;2007916;89;21109;-85
2022/08/12 04:23:27;;;;;;;7.10;6.40;;;;;;;16.92;100.00;99336.39;2004021;87;21507;-86
2022/08/12 04:26:28;;;;;;;6.50;5.90;;;;;;;17.17;100.00;99337.34;2006470;88;21107;-86
2022/08/12 04:29:28;;;;;;;6.72;6.17;;;;;;;17.47;100.00;99324.97;2030625;87;21519;-87
2022/08/12 04:32:29;;;;;;;5.92;5.40;;;;;;;17.77;100.00;99324.77;2054608;83;21012;-87
2022/08/12 04:35:30;;;;;;;6.08;5.58;;;;;;;18.08;100.00;99325.30;2212765;80;20992;-87
2022/08/12 04:38:31;;;;;;;5.37;4.87;;;;;;;18.38;100.00;99326.05;2185086;81;20965;-86
2022/08/12 04:41:32;;;;;;;5.95;5.40;;;;;;;18.77;100.00;99329.44;2166507;81;20989;-86
2022/08/12 04:44:32;;;;;;;9.05;5.30;;;;;;;19.08;100.00;99337.30;2179409;81;21563;-87
2022/08/12 04:47:33;;;;;;;6.05;5.55;;;;;;;19.34;100.00;99336.21;2147810;82;21591;-83
2022/08/12 04:50:34;;;;;;;7.05;6.22;;;;;;;19.58;100.00;99335.88;2153564;82;20989;-85
2022/08/12 04:53:35;;;;;;;7.00;6.40;;;;;;;20.00;100.00;99336.75;2159387;82;20989;-84
2022/08/12 04:56:36;;;;;;;7.22;6.50;;;;;;;20.06;100.00;99337.70;2161047;82;21020;-85
2022/08/12 04:59:36;;;;;;;7.05;5.47;;;;;;;19.78;100.00;99341.75;2158505;82;21099;-85
2022/08/12 05:02:37;;;;;;;6.10;5.50;;;;;;;19.56;100.00;99344.56;2158453;81;21519;-84
2022/08/12 05:05:39;;;;;;;5.50;4.83;;;;;;;19.48;100.00;99346.19;2159560;82;21028;-84
2022/08/12 05:08:40;;;;;;;6.67;5.95;;;;;;;19.33;100.00;99341.23;2159747;82;21064;-85
2022/08/12 05:11:41;;;;;;;6.08;5.58;;;;;;;19.25;100.00;99340.19;2153216;82;21006;-84
2022/08/12 05:14:41;;;;;;;6.67;4.83;;;;;;;19.31;100.00;99345.95;2159117;81;21537;-84
2022/08/12 05:17:42;;;;;;;6.50;5.33;;;;;;;19.19;100.00;99345.04;2155126;82;21026;-84
2022/08/12 05:20:43;;;;;;;6.08;5.47;;;;;;;19.20;100.00;99341.35;2158194;82;21543;-85
2022/08/12 05:23:44;;;;;;;8.20;7.42;;;;;;;19.11;100.00;99347.98;2157805;82;21064;-85
2022/08/12 05:26:46;;;;;;;10.72;9.95;;;;;;;19.10;100.00;99338.39;2120119;82;21013;-84
2022/08/12 05:29:48;;;;;;;7.60;6.92;;;;;;;19.13;100.00;99336.65;2157760;82;21011;-85
2022/08/12 05:32:49;;;;;;;16.35;14.73;;;;;;;18.92;100.00;99353.25;2106699;84;21073;-85
2022/08/12 05:35:49;;;;;;;13.15;12.03;;;;;;;18.77;100.00;99348.00;2148702;81;21000;-84
2022/08/12 05:38:56;;;;;;;18.23;6.50;;;;;;;18.89;100.00;99351.56;2162255;82;21059;-85
2022/08/12 05:41:58;;;;;;;5.72;5.20;;;;;;;19.13;100.00;99353.91;2165720;82;20973;-85
2022/08/12 05:44:59;;;;;;;8.35;5.75;;;;;;;19.37;100.00;99352.20;2161422;82;21673;-84
2022/08/12 05:48:01;;;;;;;5.40;4.90;;;;;;;19.45;100.00;99348.75;2165697;82;21120;-85
2022/08/12 05:51:02;;;;;;;4.67;4.35;;;;;;;19.49;100.00;99349.13;2165409;82;20997;-85
2022/08/12 05:54:02;;;;;;;5.42;4.53;;;;;;;19.36;100.00;99349.27;2164475;81;21036;-85
2022/08/12 05:57:03;;;;;;;6.80;5.28;;;;;;;19.31;100.00;99348.09;2161417;82;21038;-85
2022/08/12 06:00:04;;;;;;;8.58;5.10;;;;;;;19.35;100.00;99346.31;2157125;82;21092;-86
2022/08/12 06:03:05;;;;;;;7.45;5.55;;;;;;;19.36;100.00;99346.09;2157297;82;21060;-86
2022/08/12 06:06:06;;;;;;;5.85;4.95;;;;;;;19.44;100.00;99338.34;2165712;82;21407;-85
2022/08/12 06:09:09;;;;;;;9.35;4.47;;;;;;;19.60;100.00;99330.63;2157947;82;21555;-86
2022/08/12 06:12:10;;;;;;;9.28;4.58;;;;;;;19.69;100.00;99327.67;2161856;81;21110;-85
2022/08/12 06:15:11;;;;;;;4.67;4.28;;;;;;;19.71;100.00;99327.73;2212161;80;21056;-85
2022/08/12 06:18:12;;;;;;;4.60;4.20;;;;;;;19.89;100.00;99332.20;2217625;80;20977;-84
2022/08/12 06:21:13;;;;;;;6.50;4.42;;;;;;;19.98;100.00;99324.73;2220953;78;21000;-86
2022/08/12 06:24:13;;;;;;;5.45;4.08;;;;;;;20.15;100.00;99328.38;2166921;80;20975;-86
2022/08/12 06:27:17;;;;;;;4.78;4.47;;;;;;;20.19;100.00;99333.52;2181257;81;21072;-87
2022/08/12 06:30:19;;;;;;;8.65;4.83;;;;;;;20.28;100.00;99330.83;2158957;82;21064;-82
2022/08/12 06:33:19;;;;;;;4.72;4.33;;;;;;;20.50;100.00;99327.17;2147047;82;21004;-89
2022/08/12 06:36:21;;;;;;;8.28;4.97;;;;;;;20.63;100.00;99323.47;2159428;81;21005;-90
2022/08/12 06:39:22;;;;;;;7.60;5.37;;;;;;;20.56;100.00;99321.43;2148877;82;21094;-87
2022/08/12 06:45:26;;;;;;;5.42;4.92;;;;;;;20.62;100.00;99317.86;2078959;85;21265;-89
2022/08/12 06:48:27;;;;;;;6.83;5.72;;;;;;;20.64;100.00;99320.58;2140185;83;21068;-88
2022/08/12 06:51:28;;;;;;;12.23;6.22;;;;;;;20.72;100.00;99312.25;2136535;82;21050;-90
2022/08/12 06:54:29;;;;;;;5.95;5.00;;;;;;;20.84;100.00;99309.59;2135693;82;21408;-87
2022/08/12 06:57:30;;;;;;;9.38;5.10;;;;;;;20.97;100.00;99305.38;2136294;83;21146;-87
2022/08/12 07:00:32;;;;;;;4.97;4.45;;;;;;;21.15;100.00;99311.61;2131102;82;20999;-87
2022/08/12 07:03:33;;;;;;;21.70;5.20;;;;;;;21.14;100.00;99314.80;2139483;82;21032;-87
2022/08/12 07:06:34;;;;;;;6.65;4.17;;;;;;;21.07;100.00;99320.77;2140221;83;21001;-87
2022/08/12 07:09:34;;;;;;;4.78;4.37;;;;;;;21.04;100.00;99320.43;2139110;83;21595;-87
2022/08/12 07:12:35;;;;;;;5.28;4.60;;;;;;;20.99;100.00;99327.24;2122034;83;20962;-87
2022/08/12 07:15:36;;;;;;;5.75;4.75;;;;;;;20.96;100.00;99322.39;2118508;84;21068;-87
2022/08/12 07:18:37;;;;;;;5.47;4.60;;;;;;;20.83;100.00;99321.80;2118315;83;21093;-87
2022/08/12 07:21:37;;;;;;;9.70;5.42;;;;;;;20.77;100.00;99318.23;2132261;81;20986;-87
2022/08/12 07:24:38;;;;;;;4.90;4.42;;;;;;;20.76;100.00;99318.44;2158216;82;21084;-88
2022/08/12 07:27:39;;;;;;;7.05;4.40;;;;;;;20.81;100.00;99315.91;2168014;82;21534;-87
2022/08/12 07:30:40;;;;;;;5.05;4.60;;;;;;;20.90;100.00;99323.31;2169581;82;21031;-88
2022/08/12 07:33:41;;;;;;;8.10;4.45;;;;;;;20.92;100.00;99309.24;2147803;82;21052;-86
2022/08/12 07:36:41;;;;;;;4.35;4.05;;;;;;;21.01;100.00;99315.84;2146224;82;22161;-87
2022/08/12 07:39:42;;;;;;;12.88;4.42;;;;;;;21.07;100.00;99322.09;2126322;83;21124;-87
2022/08/12 07:42:43;;;;;;;20.62;6.78;;;;;;;21.15;100.00;99329.73;2147075;81;21001;-87
2022/08/12 07:45:44;;;;;;;10.98;4.20;;;;;;;21.35;100.00;99324.58;2161522;82;21036;-87
2022/08/12 07:48:45;;;;;;;4.20;3.80;;;;;;;21.60;100.00;99338.95;2160572;81;21064;-87
2022/08/12 07:51:45;;;;;;;7.80;3.65;;;;;;;21.63;100.00;99329.14;2143121;82;20981;-87
2022/08/12 07:54:47;;;;;;;4.20;3.72;;;;;;;21.70;100.00;99330.63;2128741;84;21005;-85
2022/08/12 07:57:47;;;;;;;9.38;4.20;;;;;;;21.79;100.00;99342.53;2125334;83;21049;-87
2022/08/12 08:00:48;;;;;;;3.90;3.30;;;;;;;21.92;100.00;99332.10;2138502;81;21044;-87
2022/08/12 08:07:13;;;;;;;8.18;3.70;;;;;;;22.04;100.00;99328.08;2156980;82;21120;-87
2022/08/12 08:10:12;;;;;;;4.10;3.60;;;;;;;22.06;100.00;99336.11;2165084;82;21064;-87
2022/08/12 08:13:14;;;;;;;3.65;3.35;;;;;;;22.09;100.00;99322.84;2162048;81;21066;-87
2022/08/12 08:16:14;;;;;;;3.42;3.12;;;;;;;22.38;100.00;99333.75;2158045;82;21100;-87
2022/08/12 08:19:19;;;;;;;3.70;3.45;;;;;;;22.63;100.00;99333.89;2161175;82;21044;-89
2022/08/12 08:22:18;;;;;;;3.65;3.30;;;;;;;22.90;100.00;99345.56;2162700;82;22165;-88
2022/08/12 08:25:19;;;;;;;4.72;3.35;;;;;;;22.96;100.00;99337.11;2166749;81;21037;-87
2022/08/12 08:28:20;;;;;;;3.02;2.83;;;;;;;23.04;100.00;99335.86;2158422;82;21049;-87
2022/08/12 08:31:21;;;;;;;4.28;3.02;;;;;;;23.13;100.00;99335.72;2156043;82;21048;-87
2022/08/12 08:34:23;;;;;;;3.30;3.10;;;;;;;23.13;100.00;99329.05;2161702;81;20977;-87
2022/08/12 08:37:24;;;;;;;3.75;3.45;;;;;;;23.16;100.00;99325.38;2160662;81;21044;-87
2022/08/12 08:43:44;;;;;;;10.48;3.80;;;;;;;23.22;100.00;99332.38;2161903;82;21102;-87
2022/08/12 08:46:44;;;;;;;11.43;3.67;;;;;;;23.39;100.00;99331.53;2157730;82;21570;-86
2022/08/12 08:49:45;;;;;;;4.03;3.05;;;;;;;23.46;100.00;99335.64;2117295;82;21079;-87
2022/08/12 08:52:47;;;;;;;12.95;3.60;;;;;;;23.61;100.00;99340.94;2134061;81;21479;-88
2022/08/12 08:55:49;;;;;;;5.28;3.45;;;;;;;23.67;100.00;99339.38;2163290;81;21060;-86
2022/08/12 08:58:50;;;;;;;3.05;2.85;;;;;;;23.54;100.00;99337.08;2167426;81;21096;-86
2022/08/12 09:01:50;;;;;;;3.20;2.72;;;;;;;23.52;100.00;99332.51;2165577;81;21035;-87
2022/08/12 09:04:51;;;;;;;4.33;3.92;;;;;;;23.50;100.00;99338.11;2143302;82;20998;-87
2022/08/12 09:07:54;;;;;;;8.90;3.98;;;;;;;23.62;100.00;99332.66;2122613;84;21564;-86
2022/08/12 09:13:26;;;;;;;3.90;3.60;;;;;;;23.77;100.00;99326.16;2146566;82;21127;-86
2022/08/12 09:14:06;;;;;;;10.78;4.42;;;;;;;23.79;100.00;99332.59;2158886;82;21078;-85
2022/08/12 09:17:04;;;;;;;12.28;4.92;;;;;;;23.74;100.00;99339.20;2137981;82;21132;-85
2022/08/12 09:20:06;;;;;;;4.15;3.70;;;;;;;23.73;100.00;99334.92;2145432;82;21068;-86
2022/08/12 09:23:09;;;;;;;3.50;3.33;;;;;;;23.67;100.00;99328.69;2160407;81;21622;-86
2022/08/12 09:26:09;;;;;;;10.43;5.55;;;;;;;23.70;100.00;99322.87;2165152;82;21067;-87
2022/08/12 09:29:10;;;;;;;5.67;4.60;;;;;;;23.83;100.00;99322.47;2165340;82;21087;-86
2022/08/12 09:32:12;;;;;;;6.17;5.45;;;;;;;24.03;100.00;99330.42;2161059;81;21016;-86
2022/08/12 09:35:12;;;;;;;19.92;5.72;;;;;;;24.14;100.00;99318.78;2161499;82;21583;-86
2022/08/12 09:38:16;;;;;;;4.20;3.80;;;;;;;24.28;100.00;99331.20;2161744;81;21012;-87
2022/08/12 09:41:16;;;;;;;5.22;3.98;;;;;;;24.32;100.00;99326.97;2157909;81;21097;-87
2022/08/12 09:47:36;;;;;;;3.67;3.40;;;;;;;24.64;100.00;99323.77;2152185;82;21044;-86
2022/08/12 09:50:38;;;;;;;4.20;3.90;;;;;;;24.79;100.00;99318.27;2155977;81;21117;-89
2022/08/12 09:53:39;;;;;;;4.53;4.12;;;;;;;24.93;100.00;99312.72;2160880;82;21057;-85
2022/08/12 09:56:39;;;;;;;6.85;4.35;;;;;;;25.08;100.00;99315.52;2165495;82;21025;-86
2022/08/12 09:59:40;;;;;;;4.33;4.03;;;;;;;25.18;100.00;99316.91;2162127;82;21076;-89
2022/08/12 10:02:42;;;;;;;15.38;4.62;;;;;;;25.31;100.00;99320.98;2165064;81;20965;-86
2022/08/12 10:05:42;;;;;;;5.53;3.90;;;;;;;25.40;100.00;99322.09;2162106;81;21072;-86
2022/08/12 10:08:43;;;;;;;3.40;3.10;;;;;;;25.55;100.00;99318.68;2165179;81;21515;-82
2022/08/12 10:15:03;;;;;;;32.42;7.55;;;;;;;25.71;100.00;99303.48;2163232;81;21053;-86
2022/08/12 10:18:04;;;;;;;3.65;3.40;;;;;;;25.71;100.00;99301.61;2158024;82;20973;-86
2022/08/12 10:21:05;;;;;;;4.10;3.75;;;;;;;25.85;100.00;99296.53;2161429;81;21009;-86
2022/08/12 10:24:06;;;;;;;4.42;4.03;;;;;;;25.90;100.00;99293.88;2161502;82;21113;-85
2022/08/12 10:30:26;;;;;;;5.65;3.30;;;;;;;26.23;100.00;99287.19;2165019;81;21055;-88
2022/08/12 10:33:29;;;;;;;5.53;3.47;;;;;;;26.33;100.00;99299.80;2153127;81;21061;-85
2022/08/12 10:36:30;;;;;;;3.50;3.17;;;;;;;26.28;100.00;99303.30;2154269;82;20973;-87
2022/08/12 10:39:32;;;;;;;3.08;2.98;;;;;;;26.15;100.00;99297.13;2164714;81;20983;-87
2022/08/12 10:45:55;;;;;;;3.20;3.00;;;;;;;26.06;100.00;99280.76;2160914;81;21531;-83
2022/08/12 10:48:54;;;;;;;3.62;3.40;;;;;;;26.00;100.00;99294.42;2165257;82;21595;-83
2022/08/12 10:51:55;;;;;;;7.35;3.27;;;;;;;26.02;100.00;99289.59;2165105;81;20953;-86
2022/08/12 10:54:56;;;;;;;3.98;3.08;;;;;;;25.96;98.01;99289.30;2163628;82;21591;-85
2022/08/12 10:57:56;;;;;;;4.87;3.62;;;;;;;26.01;77.04;99295.50;2161884;82;21079;-85
2022/08/12 11:00:58;;;;;;;3.08;2.40;;;;;;;26.10;74.05;99293.09;2131310;82;21696;-83
2022/08/12 11:04:01;;;;;;;3.12;2.75;;;;;;;26.07;70.86;99277.00;2157693;82;21105;-84
2022/08/12 11:07:02;;;;;;;3.10;2.90;;;;;;;26.17;69.42;99282.10;2155200;81;21141;-86
2022/08/12 11:10:02;;;;;;;3.65;2.65;;;;;;;26.20;63.58;99274.85;2129493;82;21025;-85
2022/08/12 11:13:04;;;;;;;2.60;2.40;;;;;;;26.34;61.49;99276.74;2128019;82;21002;-86
2022/08/12 11:16:05;;;;;;;5.30;3.05;;;;;;;26.33;59.36;99286.38;2161557;81;20992;-83
2022/08/12 11:19:06;;;;;;;6.40;3.67;;;;;;;26.36;57.63;99289.89;2141336;83;21353;-83
2022/08/12 11:22:07;;;;;;;33.85;6.60;;;;;;;26.44;58.16;99293.95;2190957;80;21058;-84
2022/08/12 11:25:07;;;;;;;13.78;3.98;;;;;;;26.46;57.14;99288.57;2217009;80;20988;-82
2022/08/12 11:28:08;;;;;;;3.22;2.80;;;;;;;26.57;55.96;99296.07;2170289;81;21021;-82
2022/08/12 11:31:09;;;;;;;7.62;3.92;;;;;;;26.56;55.88;99281.84;2158705;81;21037;-82
2022/08/12 11:34:10;;;;;;;4.35;3.58;;;;;;;26.61;56.57;99290.45;2156129;81;21075;-81
2022/08/12 11:37:10;;;;;;;23.25;4.40;;;;;;;26.68;53.30;99283.44;2162027;81;21055;-83
2022/08/12 11:40:11;;;;;;;3.02;2.83;;;;;;;26.67;54.67;99283.97;2160073;82;21084;-84
2022/08/12 11:43:12;;;;;;;3.90;3.60;;;;;;;26.74;54.85;99277.79;2153874;81;21524;-84
2022/08/12 11:46:13;;;;;;;63.05;8.55;;;;;;;26.81;55.20;99274.29;2138743;82;21025;-82
2022/08/12 11:49:14;;;;;;;3.50;3.20;;;;;;;26.92;55.23;99275.88;2144098;82;20975;-85
2022/08/12 11:52:14;;;;;;;3.27;3.08;;;;;;;26.96;54.88;99276.12;2156665;81;21545;-86
2022/08/12 11:55:15;;;;;;;12.45;4.90;;;;;;;26.98;54.54;99282.59;2148187;82;21116;-85
2022/08/12 11:58:16;;;;;;;3.20;3.08;;;;;;;26.93;53.79;99280.16;2158018;82;21151;-86
2022/08/12 12:01:17;;;;;;;3.90;3.50;;;;;;;26.80;54.12;99278.06;2153904;81;20989;-84
2022/08/12 12:04:18;;;;;;;13.95;4.58;;;;;;;26.68;53.54;99293.64;2150463;82;21060;-85
2022/08/12 12:07:19;;;;;;;6.53;3.40;;;;;;;26.60;53.75;99276.19;2164140;82;21051;-86
2022/08/12 12:10:20;;;;;;;6.37;3.47;;;;;;;26.57;53.17;99272.70;2165090;82;21066;-85
2022/08/12 12:13:21;;;;;;;3.40;3.20;;;;;;;26.56;53.64;99268.42;2161619;82;21013;-86
2022/08/12 12:16:22;;;;;;;12.95;4.42;;;;;;;26.51;53.21;99267.61;2159049;82;21111;-85
2022/08/12 12:19:23;;;;;;;7.83;3.87;;;;;;;26.58;54.26;99268.14;2140385;81;21549;-86
2022/08/12 12:22:23;;;;;;;10.00;4.12;;;;;;;26.65;53.25;99273.51;2141968;82;21053;-86
2022/08/12 12:25:24;;;;;;;4.72;3.12;;;;;;;26.76;53.53;99272.14;2176781;79;21081;-86
2022/08/12 12:28:25;;;;;;;3.02;2.72;;;;;;;26.82;52.59;99274.55;2222013;78;21060;-86
2022/08/12 12:31:26;;;;;;;3.10;2.90;;;;;;;26.69;51.10;99271.07;2200219;80;21028;-88
2022/08/12 12:34:26;;;;;;;3.30;3.10;;;;;;;26.66;51.76;99263.57;2213318;80;21124;-85
2022/08/12 12:40:32;;;;;;;4.53;4.20;;;;;;;26.54;52.55;99261.18;2171708;81;21022;-87
2022/08/12 12:43:34;;;;;;;4.53;3.72;;;;;;;26.65;53.32;99260.62;2137572;82;21080;-85
2022/08/12 12:46:35;;;;;;;3.75;3.45;;;;;;;26.67;52.10;99261.14;2165459;82;21071;-86
2022/08/12 12:49:36;;;;;;;12.35;4.62;;;;;;;26.79;52.15;99254.13;2167707;81;21630;-84
2022/08/12 12:52:37;;;;;;;4.22;3.83;;;;;;;27.02;51.83;99241.98;2161474;81;21059;-82
2022/08/12 12:55:37;;;;;;;4.08;3.87;;;;;;;27.06;51.67;99245.75;2165276;81;21055;-84
2022/08/12 12:58:39;;;;;;;4.17;3.87;;;;;;;27.01;50.83;99244.41;2110108;83;21665;-82
2022/08/12 13:01:42;;;;;;;3.80;3.60;;;;;;;27.02;51.58;99245.48;2132617;83;21097;-88
2022/08/12 13:04:42;;;;;;;4.72;4.53;;;;;;;27.02;50.55;99250.05;2181688;81;21111;-83
2022/08/12 13:07:43;;;;;;;4.30;3.90;;;;;;;27.03;51.33;99249.00;2181280;80;20998;-84
2022/08/12 13:10:44;;;;;;;46.30;9.23;;;;;;;27.11;50.35;99247.89;2181880;82;21057;-86
2022/08/12 13:13:47;;;;;;;4.15;3.83;;;;;;;27.11;50.89;99247.89;2156670;82;21144;-84
2022/08/12 13:16:47;;;;;;;5.45;4.17;;;;;;;27.14;51.56;99242.50;2182087;80;21093;-83
2022/08/12 13:19:48;;;;;;;6.72;4.80;;;;;;;27.13;51.34;99236.32;2181229;80;21005;-85
2022/08/12 13:22:48;;;;;;;4.42;4.12;;;;;;;27.07;51.32;99231.27;2182621;82;21072;-87
2022/08/12 13:25:49;;;;;;;5.60;4.72;;;;;;;26.67;50.90;99236.17;2170375;80;21021;-84
2022/08/12 13:28:52;;;;;;;5.78;4.83;;;;;;;26.59;51.62;99246.39;2161785;82;21097;-85
2022/08/12 13:31:56;;;;;;;4.80;4.50;;;;;;;26.57;52.06;99234.31;2180334;80;21532;-86
2022/08/12 13:34:57;;;;;;;64.58;9.23;;;;;;;26.49;50.83;99227.61;2181792;82;21532;-87
2022/08/12 13:37:58;;;;;;;4.95;4.55;;;;;;;26.33;52.93;99219.27;2220020;80;21068;-85
2022/08/12 13:40:59;;;;;;;4.75;4.47;;;;;;;26.38;54.50;99203.75;2228244;80;21008;-89
2022/08/12 13:43:59;;;;;;;54.35;10.10;;;;;;;26.38;54.50;99203.75;2228634;80;21095;-89
2022/08/12 13:47:00;;;;;;;5.28;4.87;;;;;;;26.42;54.96;99211.51;2228488;80;21527;-86
2022/08/12 13:50:01;;;;;;;6.53;5.70;;;;;;;26.25;55.48;99209.11;2227897;80;20992;-87
2022/08/12 13:53:03;;;;;;;4.97;4.47;;;;;;;26.24;55.84;99204.79;2228567;80;21291;-87
2022/08/12 13:56:04;;;;;;;4.83;4.45;;;;;;;26.24;56.28;99206.97;2228372;80;20980;-87
2022/08/12 13:59:06;;;;;;;5.40;4.90;;;;;;;25.92;56.81;99203.74;2228865;80;20989;-87
2022/08/12 14:02:12;;;;;;;5.50;5.08;;;;;;;25.77;57.63;99197.28;2221680;78;21069;-87
2022/08/12 14:05:09;;;;;;;4.42;4.22;;;;;;;25.76;58.44;99205.06;2226070;80;21507;-88
2022/08/12 14:08:10;;;;;;;4.65;4.35;;;;;;;25.76;58.23;99212.30;2229033;80;21067;-87
2022/08/12 14:11:14;;;;;;;3.98;3.77;;;;;;;25.61;58.01;99208.25;2228002;80;20985;-88
2022/08/12 14:14:15;;;;;;;5.90;4.35;;;;;;;25.40;58.93;99206.84;2227619;78;21072;-88
2022/08/12 14:17:15;;;;;;;5.00;4.70;;;;;;;25.33;59.55;99200.95;2228070;80;20964;-88
2022/08/12 14:20:16;;;;;;;4.83;4.55;;;;;;;25.29;60.18;99201.19;2228191;80;21047;-87
2022/08/12 14:23:17;;;;;;;4.78;4.47;;;;;;;25.27;59.84;99199.31;2228343;80;21031;-88
2022/08/12 14:26:23;;;;;;;9.83;5.50;;;;;;;25.28;59.82;99196.91;2227679;78;20994;-88
2022/08/12 14:29:23;;;;;;;4.85;4.45;;;;;;;25.24;59.57;99202.53;2228930;80;21004;-87
2022/08/12 14:32:24;;;;;;;4.87;4.58;;;;;;;25.07;60.71;99203.27;2228645;80;21011;-87
2022/08/12 14:35:26;;;;;;;4.28;3.95;;;;;;;24.92;61.51;99205.31;2228521;78;20992;-85
2022/08/12 14:38:27;;;;;;;4.78;4.47;;;;;;;24.81;62.82;99200.98;2228765;80;21019;-86
2022/08/12 14:41:27;;;;;;;4.90;4.53;;;;;;;24.67;63.43;99204.11;2227853;80;20929;-86
2022/08/12 14:44:28;;;;;;;6.22;5.72;;;;;;;24.53;64.56;99201.64;2228815;80;20988;-87
2022/08/12 14:47:29;;;;;;;5.65;5.25;;;;;;;24.42;65.89;99193.81;2228433;80;20992;-87
2022/08/12 14:50:30;;;;;;;5.83;4.80;;;;;;;24.34;66.69;99199.91;2229074;78;21048;-87
2022/08/12 14:53:32;;;;;;;4.12;3.92;;;;;;;24.33;67.28;99190.28;2163950;80;20981;-87
2022/08/12 14:56:32;;;;;;;5.50;5.08;;;;;;;24.40;67.52;99192.17;2184946;81;21121;-87
2022/08/12 15:02:54;;;;;;;5.12;4.78;;;;;;;24.59;67.25;99186.39;2184546;81;21504;-86
2022/08/12 15:05:55;;;;;;;6.83;5.10;;;;;;;24.65;67.60;99196.08;2195761;80;21492;-87
2022/08/12 15:08:55;;;;;;;5.20;4.90;;;;;;;24.61;67.71;99187.77;2215823;78;21049;-87
2022/08/12 15:11:56;;;;;;;5.97;5.47;;;;;;;24.56;67.79;99179.70;2216393;79;21041;-87
2022/08/12 15:14:58;;;;;;;5.97;4.53;;;;;;;24.55;68.80;99175.95;2219624;78;21113;-86
2022/08/12 15:17:59;;;;;;;5.37;4.92;;;;;;;24.49;70.01;99178.31;2236175;80;21016;-86
2022/08/12 15:21:00;;;;;;;4.83;4.42;;;;;;;24.45;70.59;99174.02;2233671;78;21055;-87
2022/08/12 15:24:02;;;;;;;4.90;4.50;;;;;;;24.33;70.50;99172.08;2218075;79;20966;-87
2022/08/12 15:27:02;;;;;;;5.12;4.65;;;;;;;24.20;71.72;99171.95;2214990;79;21556;-87
2022/08/12 15:30:03;;;;;;;6.10;5.58;;;;;;;24.17;72.43;99160.97;2227224;78;21023;-87
2022/08/12 15:33:07;;;;;;;5.47;5.10;;;;;;;24.20;73.11;99156.43;2221341;79;21579;-87
2022/08/12 15:36:07;;;;;;;5.80;5.40;;;;;;;24.19;72.94;99150.27;2228624;78;21148;-87
2022/08/12 15:39:08;;;;;;;5.10;4.75;;;;;;;24.23;73.49;99150.55;2220614;78;21666;-87
2022/08/12 15:42:09;;;;;;;7.55;5.10;;;;;;;24.23;73.00;99145.20;2220345;79;21015;-87
2022/08/12 15:45:09;;;;;;;5.92;5.37;;;;;;;24.27;73.43;99144.98;2217494;79;21423;-87
2022/08/12 15:48:10;;;;;;;5.75;5.28;;;;;;;24.24;73.78;99144.17;2228288;78;21052;-84
2022/08/12 15:51:11;;;;;;;6.60;5.85;;;;;;;24.13;73.63;99148.62;2225783;79;21033;-87
2022/08/12 15:54:12;;;;;;;4.72;4.33;;;;;;;24.14;74.11;99147.59;2221289;79;21426;-87
2022/08/12 15:57:13;;;;;;;4.83;4.42;;;;;;;24.06;74.09;99140.84;2209232;79;21520;-86